Time;durP1;ratioP1;P1;durP2;ratioP2;P2;SDS_P1;SDS_P2;PMS_P1;PMS_P2;Temp;Humidity;BMP_temperature;BMP_pressure;BME280_temperature;BME280_humidity;BME280_pressure;Samples;Min_cycle;Max_cycle;Signal;HPM_P1;HPM_P2
2023/04/09 00:02:22;;;;;;;;;;;;;;;;;;5094069;28;19920;-67
2023/04/09 00:04:48;;;;;;;;;;;;;;;;;;5094741;28;19919;-67
2023/04/09 00:07:14;;;;;;;;;;;;;;;;;;5076557;28;20007;-67
2023/04/09 00:09:40;;;;;;;;;;;;;;;;;;5094334;28;19999;-66
2023/04/09 00:12:06;;;;;;;;;;;;;;;;;;5094587;28;19951;-67
2023/04/09 00:14:32;;;;;;;;;;;;;;;;;;5094546;28;20380;-67
2023/04/09 00:16:58;;;;;;;;;;;;;;;;;;5094066;28;19934;-67
2023/04/09 00:19:24;;;;;;;;;;;;;;;;;;5094521;28;20326;-67
2023/04/09 00:21:50;;;;;;;;;;;;;;;;;;5076141;28;19981;-67
2023/04/09 00:24:15;;;;;;;;;;;;;;;;;;5094030;28;19919;-67
2023/04/09 00:26:41;;;;;;;;;;;;;;;;;;5094360;28;19962;-67
2023/04/09 00:29:07;;;;;;;;;;;;;;;;;;5094883;28;19956;-67
2023/04/09 00:31:33;;;;;;;;;;;;;;;;;;5093954;28;19916;-67
2023/04/09 00:33:59;;;;;;;;;;;;;;;;;;5094743;28;19908;-67
2023/04/09 00:36:25;;;;;;;;;;;;;;;;;;5094297;28;19908;-67
2023/04/09 00:38:52;;;;;;;;;;;;;;;;;;5093827;28;20275;-67
2023/04/09 00:41:18;;;;;;;;;;;;;;;;;;5094318;28;19919;-67
2023/04/09 00:43:44;;;;;;;;;;;;;;;;;;5075999;28;19912;-67
2023/04/09 00:46:10;;;;;;;;;;;;;;;;;;5093735;28;19958;-67
2023/04/09 00:48:36;;;;;;;;;;;;;;;;;;5075980;28;20347;-67
2023/04/09 00:51:02;;;;;;;;;;;;;;;;;;5094062;28;19977;-67
2023/04/09 00:53:28;;;;;;;;;;;;;;;;;;5075469;28;19912;-68
2023/04/09 00:55:54;;;;;;;;;;;;;;;;;;5093948;28;19960;-67
2023/04/09 00:58:20;;;;;;;;;;;;;;;;;;5093591;28;19931;-67
2023/04/09 01:00:46;;;;;;;;;;;;;;;;;;5093906;28;19929;-67
2023/04/09 01:03:12;;;;;;;;;;;;;;;;;;5093546;28;19920;-67
2023/04/09 01:05:38;;;;;;;;;;;;;;;;;;5093688;28;19912;-67
2023/04/09 01:08:04;;;;;;;;;;;;;;;;;;5075721;28;19909;-67
2023/04/09 01:10:30;;;;;;;;;;;;;;;;;;5093832;28;19908;-67
2023/04/09 01:12:56;;;;;;;;;;;;;;;;;;5093369;28;19912;-68
2023/04/09 01:15:21;;;;;;;;;;;;;;;;;;5094096;28;19915;-68
2023/04/09 01:17:47;;;;;;;;;;;;;;;;;;5093710;28;19912;-67
2023/04/09 01:20:13;;;;;;;;;;;;;;;;;;5093408;28;19908;-67
2023/04/09 01:22:40;;;;;;;;;;;;;;;;;;5093838;28;19917;-67
2023/04/09 01:25:06;;;;;;;;;;;;;;;;;;5097522;28;20291;-67
2023/04/09 01:27:32;;;;;;;;;;;;;;;;;;5097423;28;19909;-67
2023/04/09 01:29:57;;;;;;;;;;;;;;;;;;5097792;28;19931;-68
2023/04/09 01:32:23;;;;;;;;;;;;;;;;;;5097706;28;19908;-67
2023/04/09 01:34:49;;;;;;;;;;;;;;;;;;5097262;28;19907;-67
2023/04/09 01:37:15;;;;;;;;;;;;;;;;;;5097618;28;19908;-67
2023/04/09 01:39:41;;;;;;;;;;;;;;;;;;5097847;28;20007;-67
2023/04/09 01:42:09;;;;;;;;;;;;;;;;;;5097061;28;19923;-67
2023/04/09 01:44:35;;;;;;;;;;;;;;;;;;5097637;28;20370;-68
2023/04/09 01:47:01;;;;;;;;;;;;;;;;;;5097402;28;19915;-68
2023/04/09 01:49:27;;;;;;;;;;;;;;;;;;5096959;28;19908;-67
2023/04/09 01:51:53;;;;;;;;;;;;;;;;;;5097325;28;19908;-67
2023/04/09 01:54:19;;;;;;;;;;;;;;;;;;5097303;28;19908;-67
2023/04/09 01:56:45;;;;;;;;;;;;;;;;;;5096800;28;19908;-67
2023/04/09 01:59:11;;;;;;;;;;;;;;;;;;5097193;28;20284;-67
2023/04/09 02:01:37;;;;;;;;;;;;;;;;;;5096519;28;19919;-67
2023/04/09 02:04:03;;;;;;;;;;;;;;;;;;5097968;28;19908;-67
2023/04/09 02:06:29;;;;;;;;;;;;;;;;;;5097087;28;19908;-67
2023/04/09 02:08:55;;;;;;;;;;;;;;;;;;5096665;28;19908;-67
2023/04/09 02:11:21;;;;;;;;;;;;;;;;;;5096969;28;19915;-67
2023/04/09 02:13:47;;;;;;;;;;;;;;;;;;5096948;28;19912;-67
2023/04/09 02:16:13;;;;;;;;;;;;;;;;;;5096595;28;19916;-67
2023/04/09 02:18:39;;;;;;;;;;;;;;;;;;5096848;28;20367;-67
2023/04/09 02:21:05;;;;;;;;;;;;;;;;;;5096820;28;20380;-68
2023/04/09 02:23:32;;;;;;;;;;;;;;;;;;5096371;28;19916;-67
2023/04/09 02:25:58;;;;;;;;;;;;;;;;;;5096715;28;19912;-68
2023/04/09 02:28:24;;;;;;;;;;;;;;;;;;5096664;28;19908;-67
2023/04/09 02:30:50;;;;;;;;;;;;;;;;;;5096214;28;19908;-68
2023/04/09 02:33:16;;;;;;;;;;;;;;;;;;5096533;28;20109;-68
2023/04/09 02:35:42;;;;;;;;;;;;;;;;;;5095991;28;19908;-67
2023/04/09 02:38:12;;;;;;;;;;;;;;;;;;5096151;28;20089;-68
2023/04/09 02:40:38;;;;;;;;;;;;;;;;;;5096425;28;19912;-68
2023/04/09 02:43:04;;;;;;;;;;;;;;;;;;5078111;28;19969;-68
2023/04/09 02:45:30;;;;;;;;;;;;;;;;;;5095914;28;19908;-67
2023/04/09 02:47:56;;;;;;;;;;;;;;;;;;5078110;28;20283;-68
2023/04/09 02:50:22;;;;;;;;;;;;;;;;;;5096235;28;19908;-68
2023/04/09 02:52:48;;;;;;;;;;;;;;;;;;5095785;28;19912;-67
2023/04/09 02:55:14;;;;;;;;;;;;;;;;;;5096173;28;19928;-67
2023/04/09 02:57:40;;;;;;;;;;;;;;;;;;5096438;28;19909;-67
2023/04/09 03:00:06;;;;;;;;;;;;;;;;;;5095735;28;19909;-67
2023/04/09 03:02:32;;;;;;;;;;;;;;;;;;5095737;28;19920;-68
2023/04/09 03:04:58;;;;;;;;;;;;;;;;;;5095560;28;19912;-68
2023/04/09 03:07:24;;;;;;;;;;;;;;;;;;5095846;28;19908;-67
2023/04/09 03:09:50;;;;;;;;;;;;;;;;;;5077712;28;19914;-67
2023/04/09 03:12:16;;;;;;;;;;;;;;;;;;5095455;28;19908;-67
2023/04/09 03:14:42;;;;;;;;;;;;;;;;;;5095939;28;19914;-67
2023/04/09 03:17:08;;;;;;;;;;;;;;;;;;5095658;28;19912;-67
2023/04/09 03:19:34;;;;;;;;;;;;;;;;;;5095325;28;19915;-68
2023/04/09 03:22:00;;;;;;;;;;;;;;;;;;5077420;28;19920;-67
2023/04/09 03:24:26;;;;;;;;;;;;;;;;;;5095570;28;19955;-67
2023/04/09 03:26:52;;;;;;;;;;;;;;;;;;5095107;28;19908;-68
2023/04/09 03:29:18;;;;;;;;;;;;;;;;;;5095557;28;19961;-68
2023/04/09 03:31:44;;;;;;;;;;;;;;;;;;5095501;28;20364;-67
2023/04/09 03:34:09;;;;;;;;;;;;;;;;;;5095226;28;20368;-67
2023/04/09 03:36:35;;;;;;;;;;;;;;;;;;5095337;28;20425;-67
2023/04/09 03:39:01;;;;;;;;;;;;;;;;;;5095240;28;19908;-67
2023/04/09 03:41:27;;;;;;;;;;;;;;;;;;5094891;28;19961;-68
2023/04/09 03:43:53;;;;;;;;;;;;;;;;;;5095450;28;19912;-68
2023/04/09 03:46:19;;;;;;;;;;;;;;;;;;5094300;28;20310;-67
2023/04/09 03:48:45;;;;;;;;;;;;;;;;;;5094762;28;20284;-67
2023/04/09 03:51:12;;;;;;;;;;;;;;;;;;5095051;28;19908;-67
2023/04/09 03:53:37;;;;;;;;;;;;;;;;;;5095086;28;19995;-67
2023/04/09 03:56:03;;;;;;;;;;;;;;;;;;5076356;28;19954;-67
2023/04/09 03:58:29;;;;;;;;;;;;;;;;;;5095044;28;19962;-67
2023/04/09 04:00:55;;;;;;;;;;;;;;;;;;5094914;28;19912;-67
2023/04/09 04:03:21;;;;;;;;;;;;;;;;;;5094210;28;19928;-65
2023/04/09 04:05:47;;;;;;;;;;;;;;;;;;5094916;28;19908;-67
2023/04/09 04:08:13;;;;;;;;;;;;;;;;;;5094347;28;19991;-67
2023/04/09 04:10:39;;;;;;;;;;;;;;;;;;5094853;28;20395;-67
2023/04/09 04:13:05;;;;;;;;;;;;;;;;;;5094984;28;19908;-67
2023/04/09 04:15:31;;;;;;;;;;;;;;;;;;5094194;28;19908;-67
2023/04/09 04:17:57;;;;;;;;;;;;;;;;;;5094637;28;20006;-67
2023/04/09 04:20:23;;;;;;;;;;;;;;;;;;5076364;28;19915;-67
2023/04/09 04:22:49;;;;;;;;;;;;;;;;;;5094354;28;19916;-67
2023/04/09 04:25:15;;;;;;;;;;;;;;;;;;5094444;28;19912;-67
2023/04/09 04:27:41;;;;;;;;;;;;;;;;;;5094368;28;19913;-67
2023/04/09 04:30:07;;;;;;;;;;;;;;;;;;5093895;28;19912;-67
2023/04/09 04:32:33;;;;;;;;;;;;;;;;;;5094385;28;19914;-67
2023/04/09 04:34:59;;;;;;;;;;;;;;;;;;5094280;28;19912;-67
2023/04/09 04:37:25;;;;;;;;;;;;;;;;;;5075703;28;19955;-67
2023/04/09 04:39:50;;;;;;;;;;;;;;;;;;5094298;28;19960;-67
2023/04/09 04:42:16;;;;;;;;;;;;;;;;;;5094246;28;20280;-67
2023/04/09 04:44:42;;;;;;;;;;;;;;;;;;5093735;28;20257;-67
2023/04/09 04:47:08;;;;;;;;;;;;;;;;;;5094138;28;19912;-68
2023/04/09 04:49:34;;;;;;;;;;;;;;;;;;5094011;28;19908;-67
2023/04/09 04:52:00;;;;;;;;;;;;;;;;;;5093762;28;19915;-68
2023/04/09 04:54:26;;;;;;;;;;;;;;;;;;5094413;28;20356;-67
2023/04/09 04:56:52;;;;;;;;;;;;;;;;;;5094193;28;20006;-67
2023/04/09 04:59:18;;;;;;;;;;;;;;;;;;5093589;28;19912;-67
2023/04/09 05:01:44;;;;;;;;;;;;;;;;;;5093709;28;19924;-68
2023/04/09 05:04:10;;;;;;;;;;;;;;;;;;5094005;28;20292;-68
2023/04/09 05:06:36;;;;;;;;;;;;;;;;;;5093457;28;19915;-68
2023/04/09 05:09:02;;;;;;;;;;;;;;;;;;5093778;28;19909;-67
2023/04/09 05:11:28;;;;;;;;;;;;;;;;;;5075296;28;19943;-67
2023/04/09 05:13:54;;;;;;;;;;;;;;;;;;5093828;28;20367;-67
2023/04/09 05:16:20;;;;;;;;;;;;;;;;;;5093826;28;20371;-67
2023/04/09 05:18:46;;;;;;;;;;;;;;;;;;5093345;28;19912;-67
2023/04/09 05:21:12;;;;;;;;;;;;;;;;;;5093665;28;19912;-68
2023/04/09 05:23:38;;;;;;;;;;;;;;;;;;5093589;28;19963;-65
2023/04/09 05:26:04;;;;;;;;;;;;;;;;;;5093298;28;19916;-65
2023/04/09 05:28:30;;;;;;;;;;;;;;;;;;5093717;28;19908;-66
2023/04/09 05:30:56;;;;;;;;;;;;;;;;;;5093652;28;19931;-67
2023/04/09 05:33:22;;;;;;;;;;;;;;;;;;5093108;28;19908;-66
2023/04/09 05:35:48;;;;;;;;;;;;;;;;;;5093589;28;19958;-66
2023/04/09 05:38:14;;;;;;;;;;;;;;;;;;5093543;28;19908;-66
2023/04/09 05:40:41;;;;;;;;;;;;;;;;;;5093283;28;19908;-67
2023/04/09 05:43:07;;;;;;;;;;;;;;;;;;5093503;28;20024;-66
2023/04/09 05:45:33;;;;;;;;;;;;;;;;;;5075368;28;19951;-66
2023/04/09 05:47:59;;;;;;;;;;;;;;;;;;5093187;28;19913;-66
2023/04/09 05:50:25;;;;;;;;;;;;;;;;;;5093469;28;19961;-66
2023/04/09 05:52:51;;;;;;;;;;;;;;;;;;5075365;28;20295;-66
2023/04/09 05:55:17;;;;;;;;;;;;;;;;;;5093159;28;19914;-66
2023/04/09 05:57:44;;;;;;;;;;;;;;;;;;5093405;28;20291;-66
2023/04/09 06:00:10;;;;;;;;;;;;;;;;;;5093359;28;20024;-66
2023/04/09 06:02:36;;;;;;;;;;;;;;;;;;5092742;28;20415;-66
2023/04/09 06:05:02;;;;;;;;;;;;;;;;;;5093821;28;20379;-66
2023/04/09 06:07:28;;;;;;;;;;;;;;;;;;5093412;28;20387;-67
2023/04/09 06:09:54;;;;;;;;;;;;;;;;;;5094476;28;20335;-67
2023/04/09 06:12:20;;;;;;;;;;;;;;;;;;5096987;28;19908;-67
2023/04/09 06:14:46;;;;;;;;;;;;;;;;;;5096528;28;20368;-67
2023/04/09 06:17:12;;;;;;;;;;;;;;;;;;5096862;28;19912;-67
2023/04/09 06:19:38;;;;;;;;;;;;;;;;;;5097407;28;20287;-67
2023/04/09 06:22:04;;;;;;;;;;;;;;;;;;5096269;28;20288;-67
2023/04/09 06:24:30;;;;;;;;;;;;;;;;;;5096734;28;19919;-67
2023/04/09 06:26:56;;;;;;;;;;;;;;;;;;5096674;28;19917;-67
2023/04/09 06:29:22;;;;;;;;;;;;;;;;;;5096360;28;19913;-68
2023/04/09 06:31:48;;;;;;;;;;;;;;;;;;5096532;28;19908;-67
2023/04/09 06:34:14;;;;;;;;;;;;;;;;;;5096571;28;19908;-67
2023/04/09 06:36:42;;;;;;;;;;;;;;;;;;5096053;28;19995;-67
2023/04/09 06:39:08;;;;;;;;;;;;;;;;;;5096462;28;19919;-67
2023/04/09 06:41:34;;;;;;;;;;;;;;;;;;5078113;28;19912;-67
2023/04/09 06:44:00;;;;;;;;;;;;;;;;;;5077732;28;19912;-67
2023/04/09 06:46:26;;;;;;;;;;;;;;;;;;5096317;28;19908;-67
2023/04/09 06:48:52;;;;;;;;;;;;;;;;;;5096128;28;19946;-67
2023/04/09 06:51:18;;;;;;;;;;;;;;;;;;5078143;28;19918;-66
2023/04/09 06:53:46;;;;;;;;;;;;;;;;;;5096178;28;19933;-66
2023/04/09 06:56:12;;;;;;;;;;;;;;;;;;5077934;28;19912;-66
2023/04/09 06:58:38;;;;;;;;;;;;;;;;;;5095693;28;19919;-67
2023/04/09 07:01:04;;;;;;;;;;;;;;;;;;5096049;28;19915;-66
2023/04/09 07:03:30;;;;;;;;;;;;;;;;;;5077665;28;19927;-68
2023/04/09 07:05:56;;;;;;;;;;;;;;;;;;5095523;28;19908;-67
2023/04/09 07:08:22;;;;;;;;;;;;;;;;;;5095800;28;19997;-67
2023/04/09 07:10:48;;;;;;;;;;;;;;;;;;5096380;28;20310;-67
2023/04/09 07:13:15;;;;;;;;;;;;;;;;;;5095429;28;19962;-67
2023/04/09 07:15:41;;;;;;;;;;;;;;;;;;5095783;28;19908;-67
2023/04/09 07:18:07;;;;;;;;;;;;;;;;;;5095271;28;20326;-67
2023/04/09 07:20:33;;;;;;;;;;;;;;;;;;5077454;28;19974;-66
2023/04/09 07:22:59;;;;;;;;;;;;;;;;;;5095550;28;20317;-67
2023/04/09 07:25:25;;;;;;;;;;;;;;;;;;5095485;28;19954;-68
2023/04/09 07:27:51;;;;;;;;;;;;;;;;;;5077416;28;19908;-67
2023/04/09 07:30:17;;;;;;;;;;;;;;;;;;5095574;28;19953;-67
2023/04/09 07:32:43;;;;;;;;;;;;;;;;;;5095066;28;20006;-67
2023/04/09 07:35:10;;;;;;;;;;;;;;;;;;5095644;28;19908;-67
2023/04/09 07:37:36;;;;;;;;;;;;;;;;;;5095352;28;19912;-67
2023/04/09 07:40:02;;;;;;;;;;;;;;;;;;5094794;28;19908;-67
2023/04/09 07:42:28;;;;;;;;;;;;;;;;;;5095220;28;19920;-68
2023/04/09 07:44:55;;;;;;;;;;;;;;;;;;5095141;28;19970;-67
2023/04/09 07:47:21;;;;;;;;;;;;;;;;;;5094940;28;20280;-67
2023/04/09 07:49:47;;;;;;;;;;;;;;;;;;5076860;28;19915;-67
2023/04/09 07:52:13;;;;;;;;;;;;;;;;;;5095261;28;20364;-67
2023/04/09 07:54:39;;;;;;;;;;;;;;;;;;5094583;28;19908;-68
2023/04/09 07:57:05;;;;;;;;;;;;;;;;;;5094947;28;19908;-67
2023/04/09 07:59:31;;;;;;;;;;;;;;;;;;5094800;28;19931;-68
2023/04/09 08:01:57;;;;;;;;;;;;;;;;;;5094272;28;19920;-67
2023/04/09 08:04:23;;;;;;;;;;;;;;;;;;5095426;28;20389;-67
2023/04/09 08:06:50;;;;;;;;;;;;;;;;;;5094842;28;20386;-67
2023/04/09 08:09:15;;;;;;;;;;;;;;;;;;5094331;28;20288;-68
2023/04/09 08:11:41;;;;;;;;;;;;;;;;;;5094969;28;19908;-67
2023/04/09 08:14:11;;;;;;;;;;;;;;;;;;5094651;28;19992;-67
2023/04/09 08:16:37;;;;;;;;;;;;;;;;;;5094636;28;19908;-67
2023/04/09 08:19:03;;;;;;;;;;;;;;;;;;5094643;28;20279;-67
2023/04/09 08:21:31;;;;;;;;;;;;;;;;;;5094031;28;20440;-67
2023/04/09 08:24:00;;;;;;;;;;;;;;;;;;5094499;28;20280;-67
2023/04/09 08:26:26;;;;;;;;;;;;;;;;;;5094886;28;19908;-67
2023/04/09 08:28:52;;;;;;;;;;;;;;;;;;5093983;28;20344;-67
2023/04/09 08:31:17;;;;;;;;;;;;;;;;;;5076154;28;20386;-67
2023/04/09 08:33:43;;;;;;;;;;;;;;;;;;5093854;28;20319;-68
2023/04/09 08:36:10;;;;;;;;;;;;;;;;;;5075745;28;20317;-68
2023/04/09 08:38:36;;;;;;;;;;;;;;;;;;5094159;28;19952;-68
2023/04/09 08:41:02;;;;;;;;;;;;;;;;;;5094195;28;20002;-66
2023/04/09 08:43:28;;;;;;;;;;;;;;;;;;5093672;28;19927;-67
2023/04/09 08:45:56;;;;;;;;;;;;;;;;;;5094130;28;19915;-67
2023/04/09 08:48:22;;;;;;;;;;;;;;;;;;5094095;28;19912;-66
2023/04/09 08:50:48;;;;;;;;;;;;;;;;;;5093618;28;20001;-67
2023/04/09 08:53:14;;;;;;;;;;;;;;;;;;5093906;28;19908;-67
2023/04/09 08:55:40;;;;;;;;;;;;;;;;;;5094923;28;19908;-67
2023/04/09 08:58:06;;;;;;;;;;;;;;;;;;5093604;28;19908;-67
2023/04/09 09:00:32;;;;;;;;;;;;;;;;;;5093865;28;19914;-67
2023/04/09 09:02:58;;;;;;;;;;;;;;;;;;5093639;28;19927;-66
2023/04/09 09:05:24;;;;;;;;;;;;;;;;;;5093502;28;19936;-68
2023/04/09 09:07:50;;;;;;;;;;;;;;;;;;5075908;28;20284;-68
2023/04/09 09:10:16;;;;;;;;;;;;;;;;;;5093898;28;19912;-66
2023/04/09 09:12:42;;;;;;;;;;;;;;;;;;5075340;28;19908;-67
2023/04/09 09:15:08;;;;;;;;;;;;;;;;;;5094088;28;20085;-67
2023/04/09 09:17:34;;;;;;;;;;;;;;;;;;5093347;28;19908;-67
2023/04/09 09:20:00;;;;;;;;;;;;;;;;;;5093754;28;19915;-67
2023/04/09 09:22:26;;;;;;;;;;;;;;;;;;5093581;28;19916;-68
2023/04/09 09:24:52;;;;;;;;;;;;;;;;;;5093290;28;20365;-69
2023/04/09 09:27:17;;;;;;;;;;;;;;;;;;5093716;28;19909;-67
2023/04/09 09:29:43;;;;;;;;;;;;;;;;;;5093600;28;19915;-68
2023/04/09 09:32:09;;;;;;;;;;;;;;;;;;5093585;28;20375;-68
2023/04/09 09:34:35;;;;;;;;;;;;;;;;;;5093640;28;19912;-68
2023/04/09 09:37:01;;;;;;;;;;;;;;;;;;5093619;28;19915;-68
2023/04/09 09:39:27;;;;;;;;;;;;;;;;;;5093210;28;19916;-68
2023/04/09 09:41:53;;;;;;;;;;;;;;;;;;5075361;28;19912;-68
2023/04/09 09:44:19;;;;;;;;;;;;;;;;;;5094363;28;19912;-68
2023/04/09 09:46:45;;;;;;;;;;;;;;;;;;5097112;28;20000;-67
2023/04/09 09:49:11;;;;;;;;;;;;;;;;;;5097487;28;19908;-68
2023/04/09 09:51:37;;;;;;;;;;;;;;;;;;5097370;28;19995;-68
2023/04/09 09:54:03;;;;;;;;;;;;;;;;;;5096831;28;19953;-68
2023/04/09 09:56:31;;;;;;;;;;;;;;;;;;5079055;28;19908;-68
2023/04/09 09:58:57;;;;;;;;;;;;;;;;;;5097513;28;20003;-68
2023/04/09 10:01:23;;;;;;;;;;;;;;;;;;5096691;28;20312;-66
2023/04/09 10:03:49;;;;;;;;;;;;;;;;;;5097041;28;20329;-67
2023/04/09 10:06:15;;;;;;;;;;;;;;;;;;5097101;28;19911;-67
2023/04/09 10:08:41;;;;;;;;;;;;;;;;;;5096679;28;19908;-67
2023/04/09 10:11:07;;;;;;;;;;;;;;;;;;5097026;28;19908;-67
2023/04/09 10:13:33;;;;;;;;;;;;;;;;;;5096932;28;19936;-68
2023/04/09 10:15:59;;;;;;;;;;;;;;;;;;5096484;28;19934;-68
2023/04/09 10:18:25;;;;;;;;;;;;;;;;;;5096886;28;20003;-68
2023/04/09 10:20:51;;;;;;;;;;;;;;;;;;5096780;28;19977;-68
2023/04/09 10:23:17;;;;;;;;;;;;;;;;;;5078496;28;20313;-68
2023/04/09 10:25:43;;;;;;;;;;;;;;;;;;5096704;28;19919;-68
2023/04/09 10:28:09;;;;;;;;;;;;;;;;;;5078083;28;20283;-68
2023/04/09 10:30:35;;;;;;;;;;;;;;;;;;5078405;28;19982;-68
2023/04/09 10:33:01;;;;;;;;;;;;;;;;;;5096664;28;19939;-68
2023/04/09 10:35:27;;;;;;;;;;;;;;;;;;5096191;28;20372;-68
2023/04/09 10:37:53;;;;;;;;;;;;;;;;;;5096583;28;19915;-68
2023/04/09 10:40:20;;;;;;;;;;;;;;;;;;5096436;28;19909;-67
2023/04/09 10:42:46;;;;;;;;;;;;;;;;;;5077691;28;19962;-66
2023/04/09 10:46:55;;;;;;;;;;;;;;;;;;5092200;27;19922;-67
2023/04/09 10:49:21;;;;;;;;;;;;;;;;;;5090945;28;19955;-68
2023/04/09 10:51:47;;;;;;;;;;;;;;;;;;5091287;28;19908;-67
2023/04/09 10:55:28;;;;;;;;;;;;;;;;;;5091412;27;19923;-68
2023/04/09 10:58:32;;;;;;;;;;;;;;;;;;5173893;27;19923;-68
2023/04/09 11:04:43;;;;;;;;;;;;;;;;;;5091203;27;19916;-66
2023/04/09 11:07:09;;;;;;;;;;;;;;;;;;5091317;28;20019;-66
2023/04/09 11:09:35;;;;;;;;;;;;;;;;;;5091334;28;20352;-67
2023/04/09 11:14:42;;;;;;;;;;;;;;;;;;5092174;27;19919;-67
2023/04/09 11:18:56;;;;;;;;;;;;;;;;;;5091217;28;19922;-68
2023/04/09 11:21:50;;;;;;;;;;;;;;;;;;5091731;27;19938;-67
2023/04/09 11:24:16;;;;;;;;;;;;;;;;;;5091107;28;20428;-67
2023/04/09 11:26:42;;;;;;;;;;;;;;;;;;5091297;28;19913;-67
2023/04/09 11:29:09;;;;;;;;;;;;;;;;;;5091212;28;19908;-67
2023/04/09 11:34:30;;;;;;;;;;;;;;;;;;5173854;27;20014;-68
2023/04/09 11:37:15;;;;;;;;;;;;;;;;;;5071433;28;19925;-67
2023/04/09 11:41:43;;;;;;;;;;;;;;;;;;5092142;27;19923;-67
2023/04/09 11:44:09;;;;;;;;;;;;;;;;;;5091380;28;19999;-67
2023/04/09 11:46:35;;;;;;;;;;;;;;;;;;5089551;28;19916;-67
2023/04/09 11:49:01;;;;;;;;;;;;;;;;;;5091226;28;19915;-67
2023/04/09 11:51:29;;;;;;;;;;;;;;;;;;5091197;28;19999;-67
2023/04/09 11:53:55;;;;;;;;;;;;;;;;;;5090720;28;19912;-67
2023/04/09 11:56:21;;;;;;;;;;;;;;;;;;5091153;28;19909;-67
2023/04/09 11:58:47;;;;;;;;;;;;;;;;;;5091070;28;19931;-68
2023/04/09 12:01:13;;;;;;;;;;;;;;;;;;5090644;28;19920;-67
2023/04/09 12:03:39;;;;;;;;;;;;;;;;;;5090932;28;19915;-67
2023/04/09 12:07:36;;;;;;;;;;;;;;;;;;5091167;27;19917;-68
2023/04/09 12:16:24;;;;;;;;;;;;;;;;;;5091543;27;19916;-68
2023/04/09 12:18:54;;;;;;;;;;;;;;;;;;5091301;28;20011;-68
2023/04/09 12:24:48;;;;;;;;;;;;;;;;;;5071608;28;20296;-68
2023/04/09 12:27:14;;;;;;;;;;;;;;;;;;5071115;28;19928;-67
2023/04/09 12:29:40;;;;;;;;;;;;;;;;;;5070671;28;19991;-66
2023/04/09 12:32:07;;;;;;;;;;;;;;;;;;5070936;28;20357;-67
2023/04/09 12:34:33;;;;;;;;;;;;;;;;;;5069271;28;19943;-67
2023/04/09 12:36:59;;;;;;;;;;;;;;;;;;5070842;28;19908;-67
2023/04/09 12:39:25;;;;;;;;;;;;;;;;;;5071112;28;19943;-69
2023/04/09 12:41:53;;;;;;;;;;;;;;;;;;5069132;28;19909;-68
2023/04/09 12:44:19;;;;;;;;;;;;;;;;;;5070671;28;19917;-68
2023/04/09 12:46:45;;;;;;;;;;;;;;;;;;5070803;28;19909;-67
2023/04/09 12:49:11;;;;;;;;;;;;;;;;;;5070300;28;19909;-68
2023/04/09 12:51:36;;;;;;;;;;;;;;;;;;5070629;28;19916;-67
2023/04/09 12:54:02;;;;;;;;;;;;;;;;;;5070838;28;19908;-67
2023/04/09 12:56:28;;;;;;;;;;;;;;;;;;5068980;28;19908;-68
2023/04/09 12:58:55;;;;;;;;;;;;;;;;;;5070522;28;19916;-67
2023/04/09 13:01:20;;;;;;;;;;;;;;;;;;5070698;28;19915;-68
2023/04/09 13:03:46;;;;;;;;;;;;;;;;;;5070013;28;20319;-68
2023/04/09 13:06:12;;;;;;;;;;;;;;;;;;5070569;28;19963;-68
2023/04/09 13:08:38;;;;;;;;;;;;;;;;;;5070382;28;19908;-68
2023/04/09 13:11:04;;;;;;;;;;;;;;;;;;5069846;28;19996;-68
2023/04/09 13:13:30;;;;;;;;;;;;;;;;;;5070223;28;19916;-68
2023/04/09 13:15:56;;;;;;;;;;;;;;;;;;5070139;28;19944;-68
2023/04/09 13:18:22;;;;;;;;;;;;;;;;;;5069596;28;19909;-68
2023/04/09 13:20:48;;;;;;;;;;;;;;;;;;5070529;28;19909;-67
2023/04/09 13:23:14;;;;;;;;;;;;;;;;;;5069734;28;20408;-67
2023/04/09 13:25:40;;;;;;;;;;;;;;;;;;5069427;28;20007;-68
2023/04/09 13:28:06;;;;;;;;;;;;;;;;;;5069969;28;19951;-68
2023/04/09 13:30:32;;;;;;;;;;;;;;;;;;5070249;28;20373;-68
2023/04/09 13:32:58;;;;;;;;;;;;;;;;;;5069371;28;20400;-68
2023/04/09 13:36:45;;;;;;;;;;;;;;;;;;5174091;27;20009;-67
2023/04/09 13:39:11;;;;;;;;;;;;;;;;;;5173371;27;20295;-68
2023/04/09 13:41:37;;;;;;;;;;;;;;;;;;5173705;27;19914;-68
2023/04/09 13:44:03;;;;;;;;;;;;;;;;;;5173571;27;19907;-68
2023/04/09 13:46:29;;;;;;;;;;;;;;;;;;5173179;27;19907;-67
2023/04/09 13:48:55;;;;;;;;;;;;;;;;;;5173536;27;19911;-67
2023/04/09 13:51:21;;;;;;;;;;;;;;;;;;5173717;27;19946;-67
2023/04/09 13:53:47;;;;;;;;;;;;;;;;;;5154748;27;19907;-67
2023/04/09 13:56:13;;;;;;;;;;;;;;;;;;5154616;27;19922;-68
2023/04/09 13:58:39;;;;;;;;;;;;;;;;;;5154645;27;19907;-68
2023/04/09 14:06:48;;;;;;;;;;;;;;;;;;5152712;27;20022;-66
2023/04/09 14:13:53;;;;;;;;;;;;;;;;;;5091144;27;19917;-68
2023/04/09 14:21:09;;;;;;;;;;;;;;;;;;5091441;27;19917;-68
2023/04/09 14:23:34;;;;;;;;;;;;;;;;;;5091384;28;19989;-67
2023/04/09 14:26:00;;;;;;;;;;;;;;;;;;5091275;28;20356;-67
2023/04/09 14:31:59;;;;;;;;;;;;;;;;;;5111793;27;19912;-67
2023/04/09 14:36:31;;;;;;;;;;;;;;;;;;5092024;27;19938;-68
2023/04/09 14:39:57;;;;;;;;;;;;;;;;;;5091718;27;19916;-67
2023/04/09 14:44:35;;;;;;;;;;;;;;;;;;5153282;27;19912;-67
2023/04/09 14:47:02;;;;;;;;;;;;;;;;;;5152934;27;19911;-67
2023/04/09 14:49:28;;;;;;;;;;;;;;;;;;5152597;27;19913;-67
2023/04/09 14:51:54;;;;;;;;;;;;;;;;;;5153133;27;20337;-67
2023/04/09 14:55:50;;;;;;;;;;;;;;;;;;5091098;28;19919;-66
2023/04/09 14:58:16;;;;;;;;;;;;;;;;;;5091603;28;20313;-66
2023/04/09 15:00:43;;;;;;;;;;;;;;;;;;5091329;28;19946;-67
2023/04/09 15:03:09;;;;;;;;;;;;;;;;;;5089955;28;20287;-67
2023/04/09 15:05:35;;;;;;;;;;;;;;;;;;5091186;28;19909;-67
2023/04/09 15:08:01;;;;;;;;;;;;;;;;;;5091100;28;19999;-68
2023/04/09 15:10:27;;;;;;;;;;;;;;;;;;5089408;28;19952;-68
2023/04/09 15:12:53;;;;;;;;;;;;;;;;;;5091196;28;19908;-67
2023/04/09 15:15:19;;;;;;;;;;;;;;;;;;5091276;28;19955;-68
2023/04/09 15:17:45;;;;;;;;;;;;;;;;;;5090735;28;19909;-67
2023/04/09 15:20:12;;;;;;;;;;;;;;;;;;5090969;28;19916;-68
2023/04/09 15:22:38;;;;;;;;;;;;;;;;;;5090851;28;20384;-67
2023/04/09 15:25:04;;;;;;;;;;;;;;;;;;5090444;28;19909;-68
2023/04/09 15:27:30;;;;;;;;;;;;;;;;;;5089582;28;19920;-68
2023/04/09 15:29:56;;;;;;;;;;;;;;;;;;5090779;28;20269;-68
2023/04/09 15:32:22;;;;;;;;;;;;;;;;;;5089005;28;19908;-68
2023/04/09 15:34:48;;;;;;;;;;;;;;;;;;5089329;28;19928;-67
2023/04/09 15:37:14;;;;;;;;;;;;;;;;;;5090683;28;19908;-66
2023/04/09 15:39:40;;;;;;;;;;;;;;;;;;5090180;28;19915;-68
2023/04/09 15:42:06;;;;;;;;;;;;;;;;;;5090590;28;19987;-67
2023/04/09 15:44:32;;;;;;;;;;;;;;;;;;5089987;28;19947;-67
2023/04/09 15:46:58;;;;;;;;;;;;;;;;;;5090372;28;19908;-67
2023/04/09 15:49:24;;;;;;;;;;;;;;;;;;5090411;28;19909;-67
2023/04/09 15:51:50;;;;;;;;;;;;;;;;;;5089874;28;19931;-67
2023/04/09 15:54:16;;;;;;;;;;;;;;;;;;5088710;28;19920;-67
2023/04/09 15:56:42;;;;;;;;;;;;;;;;;;5090299;28;20069;-66
2023/04/09 15:59:08;;;;;;;;;;;;;;;;;;5090092;28;19916;-67
2023/04/09 16:01:34;;;;;;;;;;;;;;;;;;5090167;28;19908;-67
2023/04/09 16:04:00;;;;;;;;;;;;;;;;;;5090084;28;20009;-67
2023/04/09 16:06:26;;;;;;;;;;;;;;;;;;5080052;28;20321;-67
2023/04/09 16:08:52;;;;;;;;;;;;;;;;;;5076575;28;19908;-67
2023/04/09 16:11:18;;;;;;;;;;;;;;;;;;5075487;28;19913;-67
2023/04/09 16:13:45;;;;;;;;;;;;;;;;;;5076042;28;19913;-67
2023/04/09 16:16:11;;;;;;;;;;;;;;;;;;5076466;28;19912;-67
2023/04/09 16:18:36;;;;;;;;;;;;;;;;;;5076270;28;19931;-67
2023/04/09 16:21:03;;;;;;;;;;;;;;;;;;5075913;28;19955;-67
2023/04/09 16:23:29;;;;;;;;;;;;;;;;;;5076347;28;19948;-68
2023/04/09 16:25:55;;;;;;;;;;;;;;;;;;5076374;28;20330;-67
2023/04/09 16:28:21;;;;;;;;;;;;;;;;;;5075818;28;19913;-69
2023/04/09 16:30:47;;;;;;;;;;;;;;;;;;5076599;28;19909;-66
2023/04/09 16:33:13;;;;;;;;;;;;;;;;;;5076152;28;19915;-66
2023/04/09 16:35:39;;;;;;;;;;;;;;;;;;5075593;28;19928;-68
2023/04/09 16:38:05;;;;;;;;;;;;;;;;;;5076174;28;20437;-68
2023/04/09 16:40:31;;;;;;;;;;;;;;;;;;5074709;28;19912;-69
2023/04/09 16:42:57;;;;;;;;;;;;;;;;;;5075527;28;20045;-67
2023/04/09 16:45:23;;;;;;;;;;;;;;;;;;5075825;28;19909;-67
2023/04/09 16:47:49;;;;;;;;;;;;;;;;;;5075603;28;20007;-66
2023/04/09 16:50:15;;;;;;;;;;;;;;;;;;5075780;28;19909;-68
2023/04/09 16:52:42;;;;;;;;;;;;;;;;;;5075940;28;19909;-67
2023/04/09 16:55:08;;;;;;;;;;;;;;;;;;5089647;28;19920;-67
2023/04/09 16:57:34;;;;;;;;;;;;;;;;;;5095752;28;19994;-69
2023/04/09 17:00:00;;;;;;;;;;;;;;;;;;5095954;28;20002;-69
2023/04/09 17:02:27;;;;;;;;;;;;;;;;;;5095339;28;20426;-68
2023/04/09 17:04:53;;;;;;;;;;;;;;;;;;5095764;28;19909;-67
2023/04/09 17:07:19;;;;;;;;;;;;;;;;;;5095554;28;19935;-68
2023/04/09 17:09:45;;;;;;;;;;;;;;;;;;5095243;28;19908;-68
2023/04/09 17:12:11;;;;;;;;;;;;;;;;;;5095548;28;20384;-69
2023/04/09 17:14:37;;;;;;;;;;;;;;;;;;5095417;28;19923;-68
2023/04/09 17:17:03;;;;;;;;;;;;;;;;;;5094483;28;20328;-67
2023/04/09 17:19:29;;;;;;;;;;;;;;;;;;5077118;28;19908;-68
2023/04/09 17:21:58;;;;;;;;;;;;;;;;;;5095373;28;19908;-68
2023/04/09 17:24:24;;;;;;;;;;;;;;;;;;5095173;28;19915;-68
2023/04/09 17:26:50;;;;;;;;;;;;;;;;;;5095231;28;20291;-68
2023/04/09 17:29:16;;;;;;;;;;;;;;;;;;5077067;28;19908;-68
2023/04/09 17:31:42;;;;;;;;;;;;;;;;;;5094760;28;19914;-68
2023/04/09 17:34:09;;;;;;;;;;;;;;;;;;5095220;28;19920;-67